Time;durP1;ratioP1;P1;durP2;ratioP2;P2;SDS_P1;SDS_P2;PMS_P1;PMS_P2;Temp;Humidity;BMP_temperature;BMP_pressure;BME280_temperature;BME280_humidity;BME280_pressure;Samples;Min_cycle;Max_cycle;Signal;HPM_P1;HPM_P2
2022/08/07 00:00:43;;;;;;;2.72;1.70;;;;;;;14.67;62.71;101495.09;5061553;28;20047;-75
2022/08/07 00:03:09;;;;;;;6.53;2.20;;;;;;;14.47;63.37;101471.84;5076291;28;20062;-73
2022/08/07 00:05:35;;;;;;;3.97;1.73;;;;;;;14.57;63.41;101489.50;5052589;28;20751;-74
2022/08/07 00:08:01;;;;;;;1.85;1.50;;;;;;;14.54;64.12;101501.03;5058808;28;20024;-74
2022/08/07 00:10:28;;;;;;;4.32;1.92;;;;;;;14.51;64.57;101512.59;5053375;28;20044;-74
2022/08/07 00:12:54;;;;;;;4.15;2.10;;;;;;;14.44;64.36;101508.16;5053818;28;20031;-74
2022/08/07 00:15:19;;;;;;;3.10;2.58;;;;;;;14.36;64.97;101494.06;5054161;28;20024;-74
2022/08/07 00:17:45;;;;;;;2.65;2.03;;;;;;;14.38;65.38;101498.19;5055199;28;20028;-74
2022/08/07 00:20:11;;;;;;;6.75;2.92;;;;;;;14.32;66.05;101493.75;5078979;28;20032;-73
2022/08/07 00:22:36;;;;;;;10.25;3.28;;;;;;;14.32;66.38;101494.59;5061917;28;20398;-74
2022/08/07 00:25:06;;;;;;;4.55;2.80;;;;;;;14.25;67.40;101498.66;5027417;28;20033;-73
2022/08/07 00:27:32;;;;;;;3.25;2.08;;;;;;;14.21;66.91;101492.03;5076046;28;20109;-73
2022/08/07 00:29:58;;;;;;;3.63;2.00;;;;;;;14.13;66.71;101490.59;5042495;28;20517;-73
2022/08/07 00:32:23;;;;;;;5.25;2.35;;;;;;;14.08;67.03;101483.13;5058990;28;20364;-75
2022/08/07 00:34:49;;;;;;;4.07;2.40;;;;;;;14.09;67.07;101478.44;5028299;28;20052;-74
2022/08/07 00:37:15;;;;;;;6.30;2.88;;;;;;;14.16;68.95;101494.75;5045912;28;20052;-74
2022/08/07 00:39:41;;;;;;;6.13;2.80;;;;;;;14.16;69.77;101484.56;5073520;28;20507;-73
2022/08/07 00:42:07;;;;;;;6.00;2.70;;;;;;;14.20;69.85;101479.38;5060178;28;20036;-72
2022/08/07 00:44:33;;;;;;;9.95;3.30;;;;;;;14.21;69.95;101481.03;5078597;28;20020;-74
2022/08/07 00:47:02;;;;;;;5.05;2.67;;;;;;;14.13;69.68;101466.69;5078002;28;20021;-73
2022/08/07 00:49:27;;;;;;;5.00;3.05;;;;;;;14.12;69.76;101473.28;5078890;28;20033;-73
2022/08/07 00:51:53;;;;;;;6.32;2.92;;;;;;;14.12;70.52;101477.94;5078479;28;20347;-73
2022/08/07 00:54:18;;;;;;;6.40;3.08;;;;;;;14.06;70.56;101471.59;5053270;28;20483;-73
2022/08/07 00:56:44;;;;;;;4.45;2.70;;;;;;;14.09;70.64;101472.94;5045281;28;20075;-73
2022/08/07 00:59:09;;;;;;;5.05;2.92;;;;;;;14.07;70.79;101472.41;5066660;28;20086;-73
2022/08/07 01:01:35;;;;;;;6.18;2.65;;;;;;;14.03;70.97;101468.50;5078721;28;20030;-74
2022/08/07 01:04:05;;;;;;;6.55;2.92;;;;;;;14.01;71.25;101466.03;5061186;28;20135;-73
2022/08/07 01:06:31;;;;;;;8.57;2.97;;;;;;;14.00;71.32;101463.53;5069095;28;20020;-74
2022/08/07 01:08:57;;;;;;;10.25;3.03;;;;;;;13.98;71.04;101460.25;5059854;28;20043;-74
2022/08/07 01:11:23;;;;;;;3.80;2.38;;;;;;;13.96;71.39;101463.25;5074610;28;20042;-73
2022/08/07 01:13:49;;;;;;;8.43;2.88;;;;;;;13.93;71.79;101456.34;5059358;28;20475;-73
2022/08/07 01:16:14;;;;;;;5.22;2.75;;;;;;;13.94;71.36;101468.19;5053041;28;20027;-72
2022/08/07 01:18:40;;;;;;;4.50;2.95;;;;;;;13.87;71.08;101464.81;5075623;28;20020;-73
2022/08/07 01:21:05;;;;;;;4.60;2.53;;;;;;;13.84;71.05;101465.34;5061774;28;20080;-73
2022/08/07 01:23:32;;;;;;;5.50;2.88;;;;;;;13.77;71.38;101460.09;5064248;28;20028;-73
2022/08/07 01:25:59;;;;;;;5.18;2.90;;;;;;;13.77;70.96;101465.59;5061642;28;20035;-72
2022/08/07 01:28:25;;;;;;;3.53;2.05;;;;;;;13.66;70.80;101448.16;5025272;28;20032;-73
2022/08/07 01:30:52;;;;;;;4.15;2.65;;;;;;;13.68;70.88;101451.50;5061245;28;20116;-73
2022/08/07 01:33:18;;;;;;;4.68;2.85;;;;;;;13.66;70.88;101456.41;5058620;28;20024;-73
2022/08/07 01:35:45;;;;;;;5.70;2.45;;;;;;;13.68;70.90;101461.63;5070309;28;20096;-72
2022/08/07 01:38:10;;;;;;;4.47;2.40;;;;;;;13.63;71.31;101454.19;5075764;28;20033;-73
2022/08/07 01:40:38;;;;;;;4.70;3.00;;;;;;;13.63;71.02;101454.19;5056685;28;20028;-73
2022/08/07 01:43:05;;;;;;;5.53;2.90;;;;;;;13.60;71.62;101450.03;5056278;28;20055;-75
2022/08/07 01:45:32;;;;;;;5.38;2.67;;;;;;;13.62;71.72;101447.03;5049771;28;20059;-73
2022/08/07 01:47:58;;;;;;;3.63;2.72;;;;;;;13.59;71.59;101455.78;5051059;28;20036;-72
2022/08/07 01:50:25;;;;;;;7.50;2.78;;;;;;;13.56;71.60;101448.06;5045190;28;20028;-73
2022/08/07 01:52:55;;;;;;;3.10;2.00;;;;;;;13.54;70.93;101453.00;5046002;28;20073;-73
2022/08/07 01:55:35;;;;;;;5.55;2.58;;;;;;;13.46;71.18;101458.97;5067780;28;20029;-74
2022/08/07 01:58:05;;;;;;;3.95;2.35;;;;;;;13.45;71.36;101455.41;5074136;28;20027;-73
2022/08/07 02:00:31;;;;;;;5.25;2.58;;;;;;;13.41;70.85;101452.31;5072105;28;20025;-72
2022/08/07 02:03:01;;;;;;;3.83;2.35;;;;;;;13.38;70.95;101452.84;5044549;28;20052;-72
2022/08/07 02:05:34;;;;;;;5.35;2.22;;;;;;;13.35;71.13;101458.06;5057858;28;20040;-73
2022/08/07 02:08:06;;;;;;;4.93;3.08;;;;;;;13.28;71.23;101453.53;5077263;28;20035;-73
2022/08/07 02:10:33;;;;;;;3.05;2.30;;;;;;;13.32;70.99;101464.84;5060155;28;20040;-73
2022/08/07 02:13:01;;;;;;;5.47;2.80;;;;;;;13.32;71.28;101456.63;5057819;28;20031;-73
2022/08/07 02:15:28;;;;;;;3.63;2.35;;;;;;;13.30;71.72;101461.53;5058912;28;20056;-73
2022/08/07 02:17:55;;;;;;;3.80;2.03;;;;;;;13.26;71.36;101460.41;5058834;28;20029;-74
2022/08/07 02:20:23;;;;;;;4.15;1.70;;;;;;;13.21;70.71;101463.09;5060436;28;20059;-72
2022/08/07 02:22:56;;;;;;;3.05;1.75;;;;;;;13.17;70.72;101462.78;5072264;28;20088;-73
2022/08/07 02:25:23;;;;;;;3.05;1.60;;;;;;;13.15;70.28;101447.66;5056654;28;20162;-72
2022/08/07 02:27:50;;;;;;;2.95;1.73;;;;;;;13.18;69.91;101455.38;5082702;28;20087;-72
2022/08/07 02:30:16;;;;;;;2.92;2.08;;;;;;;13.22;70.09;101459.25;5073355;28;20037;-72
2022/08/07 02:32:43;;;;;;;2.70;2.00;;;;;;;13.20;69.89;101459.53;5048854;28;20021;-72
2022/08/07 02:35:09;;;;;;;3.75;1.75;;;;;;;13.21;69.88;101457.59;5054570;28;20063;-73
2022/08/07 02:37:38;;;;;;;2.88;2.10;;;;;;;13.20;69.65;101455.91;5027961;28;20035;-72
2022/08/07 02:40:06;;;;;;;6.15;2.42;;;;;;;13.20;69.37;101451.28;5071827;28;20035;-73
2022/08/07 02:42:33;;;;;;;3.30;2.10;;;;;;;13.18;69.17;101455.38;5050573;28;20186;-71
2022/08/07 02:45:00;;;;;;;3.65;1.73;;;;;;;13.14;69.09;101440.47;5027697;28;20020;-73
2022/08/07 02:47:26;;;;;;;2.85;2.00;;;;;;;13.16;69.32;101443.81;5060425;28;20028;-73
2022/08/07 02:49:52;;;;;;;3.92;1.80;;;;;;;13.14;68.65;101451.47;5054385;28;20344;-72
2022/08/07 02:52:43;;;;;;;2.22;1.70;;;;;;;13.03;68.39;101448.63;5047897;28;20017;-72
2022/08/07 02:55:14;;;;;;;1.48;1.20;;;;;;;13.10;68.33;101452.00;5057298;28;20661;-72
2022/08/07 02:57:42;;;;;;;2.35;1.30;;;;;;;13.06;68.72;101455.50;5062067;28;20027;-73
2022/08/07 03:00:09;;;;;;;2.08;1.30;;;;;;;13.03;68.14;101451.34;5068480;28;20043;-73
2022/08/07 03:02:38;;;;;;;2.35;1.55;;;;;;;13.02;68.40;101449.69;5064920;28;20055;-72
2022/08/07 03:05:05;;;;;;;4.72;1.90;;;;;;;13.02;68.33;101455.19;5077714;28;20134;-73
2022/08/07 03:07:31;;;;;;;2.65;1.73;;;;;;;13.03;67.92;101451.34;5034954;28;20394;-72
2022/08/07 03:09:58;;;;;;;3.47;1.70;;;;;;;12.98;67.94;101448.56;5079246;28;20078;-72
2022/08/07 03:12:25;;;;;;;3.30;1.70;;;;;;;12.92;67.90;101444.09;5061770;28;20020;-72
2022/08/07 03:21:43;;;;;;;2.53;1.85;;;;;;;12.67;67.52;101422.66;4927935;28;20552;-73
2022/08/07 03:24:15;;;;;;;3.83;1.83;;;;;;;12.57;68.36;101404.16;4931397;29;20063;-73
2022/08/07 03:26:41;;;;;;;3.10;1.70;;;;;;;12.81;68.04;101453.31;4904879;29;20123;-73
2022/08/07 03:29:09;;;;;;;3.67;2.05;;;;;;;12.74;68.35;101446.06;4944203;28;20034;-74
2022/08/07 03:31:36;;;;;;;1.75;1.50;;;;;;;12.74;68.23;101448.81;5020361;28;20048;-73
2022/08/07 03:34:04;;;;;;;3.05;1.63;;;;;;;12.66;68.12;101446.53;5058434;28;20028;-73
2022/08/07 03:36:32;;;;;;;1.58;1.27;;;;;;;12.56;68.03;101438.19;5063983;28;20027;-72
2022/08/07 03:39:06;;;;;;;3.97;1.92;;;;;;;12.59;68.88;101445.91;5075895;28;20025;-72
2022/08/07 03:41:33;;;;;;;1.50;1.40;;;;;;;12.54;68.26;101446.66;5063036;28;20047;-72
2022/08/07 03:43:59;;;;;;;4.53;1.98;;;;;;;12.43;68.53;101433.06;5047750;28;20372;-73
2022/08/07 03:46:25;;;;;;;3.10;1.80;;;;;;;12.49;68.88;101437.53;5062186;28;20451;-71
2022/08/07 03:48:52;;;;;;;1.92;1.40;;;;;;;12.48;68.33;101433.13;5043097;28;20035;-70
2022/08/07 03:51:19;;;;;;;3.22;1.48;;;;;;;12.74;68.24;101443.34;5060033;28;20040;-69
2022/08/07 03:53:45;;;;;;;3.75;1.60;;;;;;;12.98;67.26;101448.56;5077859;28;20036;-70
2022/08/07 03:56:13;;;;;;;1.40;1.17;;;;;;;13.13;67.09;101444.31;5057289;28;20029;-70
2022/08/07 03:58:39;;;;;;;2.75;1.70;;;;;;;13.38;66.27;101444.63;5077791;28;20049;-69
2022/08/07 04:01:07;;;;;;;3.47;1.83;;;;;;;13.52;65.84;101442.28;5076291;28;20021;-70
2022/08/07 04:03:33;;;;;;;5.40;1.75;;;;;;;13.57;64.80;101438.75;5066648;28;20614;-70
2022/08/07 04:05:59;;;;;;;5.53;1.40;;;;;;;13.55;65.10;101446.41;5067380;28;20041;-69
2022/08/07 04:08:25;;;;;;;2.55;2.00;;;;;;;13.58;65.09;101445.88;5049400;28;20116;-69
2022/08/07 04:10:53;;;;;;;2.45;1.40;;;;;;;13.57;65.02;101447.00;5065173;28;20425;-71
2022/08/07 04:13:20;;;;;;;2.35;1.30;;;;;;;13.55;64.21;101443.66;5054292;28;20036;-70
2022/08/07 04:15:46;;;;;;;4.00;1.73;;;;;;;13.59;64.98;101442.06;5072297;28;20059;-70
2022/08/07 04:18:13;;;;;;;2.88;1.70;;;;;;;13.54;64.13;101442.03;5049536;28;20441;-69
2022/08/07 04:20:39;;;;;;;2.45;1.40;;;;;;;13.55;64.99;101440.91;5053495;28;20124;-70
2022/08/07 04:23:05;;;;;;;2.97;1.80;;;;;;;13.63;63.98;101440.44;5054463;28;20048;-68
2022/08/07 04:25:30;;;;;;;2.25;1.52;;;;;;;13.65;63.85;101448.41;5069726;28;20470;-69
2022/08/07 04:27:56;;;;;;;3.22;1.95;;;;;;;13.59;64.03;101436.56;5056028;28;20042;-69
2022/08/07 04:30:21;;;;;;;5.30;1.70;;;;;;;13.50;64.32;101432.63;5053802;28;20052;-68
2022/08/07 04:32:48;;;;;;;3.65;1.67;;;;;;;13.42;64.12;101436.69;5066654;28;20024;-69
2022/08/07 04:35:14;;;;;;;1.63;1.23;;;;;;;13.35;64.51;101442.38;5032642;28;20035;-70
2022/08/07 04:37:39;;;;;;;2.28;1.25;;;;;;;13.34;64.55;101440.72;5074923;28;20032;-69
2022/08/07 04:40:06;;;;;;;4.22;1.50;;;;;;;13.38;63.80;101433.63;5053929;28;20481;-69
2022/08/07 04:42:33;;;;;;;2.40;1.30;;;;;;;13.54;63.48;101436.53;5073923;28;20071;-70
2022/08/07 04:45:02;;;;;;;2.60;1.33;;;;;;;13.55;63.85;101436.25;5055031;28;20036;-70
2022/08/07 04:47:54;;;;;;;2.08;1.50;;;;;;;13.62;63.28;101447.03;5070945;28;20039;-69
2022/08/07 04:50:46;;;;;;;3.25;1.20;;;;;;;13.59;63.00;101447.53;5070602;28;20020;-70
2022/08/07 04:53:33;;;;;;;2.42;1.35;;;;;;;13.59;63.04;101447.53;5062252;28;20035;-68
2022/08/07 04:56:07;;;;;;;1.50;1.20;;;;;;;13.59;63.03;101453.03;5060853;28;20060;-69
2022/08/07 04:58:44;;;;;;;2.13;1.40;;;;;;;13.56;63.43;101453.56;5056055;28;20039;-69
2022/08/07 05:01:16;;;;;;;1.58;1.30;;;;;;;13.57;62.85;101456.06;5054253;28;20470;-70
2022/08/07 05:04:01;;;;;;;2.13;1.38;;;;;;;13.55;63.51;101457.41;5055146;28;20073;-70
2022/08/07 05:06:40;;;;;;;2.15;1.42;;;;;;;13.55;63.66;101451.91;5064693;28;20529;-71
2022/08/07 05:09:41;;;;;;;1.80;1.48;;;;;;;13.58;62.89;101456.88;5049409;28;20032;-70
2022/08/07 05:12:12;;;;;;;4.95;1.20;;;;;;;13.58;63.41;101451.38;5051127;28;20033;-70
2022/08/07 05:14:43;;;;;;;2.00;1.10;;;;;;;13.55;63.44;101461.00;5070401;28;20382;-69
2022/08/07 05:17:12;;;;;;;1.70;1.40;;;;;;;13.50;63.33;101460.94;5057486;28;20033;-70
2022/08/07 05:19:45;;;;;;;2.72;1.70;;;;;;;13.47;63.23;101460.63;5073721;28;20114;-71
2022/08/07 05:22:13;;;;;;;1.65;1.40;;;;;;;13.46;63.34;101461.72;5073003;28;20032;-71
2022/08/07 05:24:40;;;;;;;4.75;1.35;;;;;;;13.49;62.89;101463.94;5076034;28;20032;-70
2022/08/07 05:27:09;;;;;;;2.60;1.83;;;;;;;13.49;63.64;101463.94;5048239;28;20072;-70
2022/08/07 05:29:38;;;;;;;4.43;1.67;;;;;;;13.45;63.65;101469.13;5074199;28;20039;-70
2022/08/07 05:32:06;;;;;;;4.72;1.50;;;;;;;13.43;63.92;101466.66;5058881;28;20078;-69
2022/08/07 05:34:34;;;;;;;2.28;1.58;;;;;;;13.47;63.52;101466.13;5061540;28;20028;-69
2022/08/07 05:37:02;;;;;;;2.38;1.40;;;;;;;13.54;63.75;101466.75;5072730;28;20078;-70
2022/08/07 05:39:28;;;;;;;2.35;1.17;;;;;;;13.61;63.46;101461.88;5056412;28;20044;-69
2022/08/07 05:41:54;;;;;;;2.17;1.20;;;;;;;13.69;62.81;101475.13;5062405;28;20028;-70
2022/08/07 05:44:20;;;;;;;3.22;1.40;;;;;;;13.80;63.25;101476.06;5070869;28;20071;-71
2022/08/07 05:46:50;;;;;;;2.90;1.40;;;;;;;13.88;62.33;101480.22;5052417;28;20056;-69
2022/08/07 05:49:16;;;;;;;2.65;1.50;;;;;;;13.90;62.66;101475.28;5050635;28;20025;-70
2022/08/07 05:51:43;;;;;;;2.28;1.30;;;;;;;13.96;62.22;101480.56;5074356;28;20031;-70
2022/08/07 05:54:10;;;;;;;1.35;0.93;;;;;;;14.03;62.15;101479.50;5060641;28;20033;-71
2022/08/07 05:56:38;;;;;;;3.67;1.23;;;;;;;14.10;62.03;101491.13;5039874;28;20498;-69
2022/08/07 05:59:08;;;;;;;2.10;1.13;;;;;;;14.16;62.02;101489.25;5048731;28;20029;-71
2022/08/07 06:01:35;;;;;;;1.48;1.08;;;;;;;14.21;61.79;101486.53;5071598;28;20029;-72
2022/08/07 06:04:03;;;;;;;1.33;0.80;;;;;;;14.29;61.40;101491.53;5046867;28;20135;-70
2022/08/07 06:06:31;;;;;;;2.30;0.82;;;;;;;14.42;61.59;101496.56;5071082;28;20432;-70
2022/08/07 06:08:56;;;;;;;1.08;0.88;;;;;;;14.53;61.46;101494.72;5074529;28;20393;-68
2022/08/07 06:11:22;;;;;;;2.03;1.00;;;;;;;14.63;61.02;101488.44;5045345;28;20095;-69
2022/08/07 06:13:47;;;;;;;1.55;0.98;;;;;;;14.75;60.53;101502.03;5052631;28;21140;-71
2022/08/07 06:16:14;;;;;;;1.80;0.93;;;;;;;14.91;60.57;101494.63;5065116;28;20043;-72
2022/08/07 06:18:40;;;;;;;0.82;0.82;;;;;;;15.05;60.10;101500.47;5059081;28;20063;-71
2022/08/07 06:21:07;;;;;;;0.73;0.73;;;;;;;15.13;59.61;101489.78;5054573;28;20024;-73
2022/08/07 06:23:32;;;;;;;1.38;1.05;;;;;;;15.24;59.21;101493.38;5069712;28;20044;-71
2022/08/07 06:25:59;;;;;;;1.40;0.95;;;;;;;15.39;59.28;101495.34;5054079;28;20062;-70
2022/08/07 06:28:24;;;;;;;1.73;1.20;;;;;;;15.50;58.59;101488.75;5044479;28;20029;-69
2022/08/07 06:30:50;;;;;;;1.10;0.93;;;;;;;15.56;58.93;101489.59;5054903;28;20413;-71
2022/08/07 06:33:17;;;;;;;1.83;0.90;;;;;;;15.64;58.56;101491.00;5038003;28;20617;-72
2022/08/07 06:35:43;;;;;;;2.65;0.85;;;;;;;15.68;58.55;101484.66;5053170;28;20029;-70
2022/08/07 06:38:08;;;;;;;0.88;0.70;;;;;;;15.85;58.28;101492.66;5036773;28;20042;-70
2022/08/07 06:40:41;;;;;;;1.30;0.80;;;;;;;16.06;57.93;101487.13;5062201;28;20039;-69
2022/08/07 06:43:10;;;;;;;1.23;1.10;;;;;;;16.21;56.97;101495.41;5045529;28;20099;-72
2022/08/07 06:45:36;;;;;;;4.05;1.33;;;;;;;16.38;56.41;101488.75;5046649;28;20556;-72
2022/08/07 06:48:02;;;;;;;1.48;0.82;;;;;;;16.49;56.38;101495.09;5072654;28;20120;-71
2022/08/07 06:50:30;;;;;;;4.47;1.38;;;;;;;16.67;56.13;101496.41;5049875;28;20027;-71
2022/08/07 06:52:57;;;;;;;4.55;1.00;;;;;;;16.77;55.62;101485.31;5067846;28;20388;-70
2022/08/07 06:55:29;;;;;;;3.40;1.00;;;;;;;16.84;55.34;101482.28;5070421;28;20036;-70
2022/08/07 06:57:58;;;;;;;3.05;1.17;;;;;;;16.95;54.97;101483.06;5071987;28;20032;-71
2022/08/07 07:00:26;;;;;;;3.20;1.35;;;;;;;17.11;54.46;101501.22;5052879;28;20150;-69
2022/08/07 07:02:52;;;;;;;2.20;1.13;;;;;;;17.17;54.03;101485.44;5070105;28;20028;-70
2022/08/07 07:05:20;;;;;;;1.90;1.13;;;;;;;17.22;53.66;101491.78;5069668;28;20339;-71
2022/08/07 07:07:46;;;;;;;1.27;0.93;;;;;;;17.30;54.15;101497.81;5052945;28;20060;-70
2022/08/07 07:10:13;;;;;;;2.00;1.30;;;;;;;17.40;53.84;101497.75;5052664;28;20060;-72
2022/08/07 07:12:48;;;;;;;5.68;1.42;;;;;;;17.48;53.66;101496.31;5065105;28;20025;-72
2022/08/07 07:15:18;;;;;;;1.40;0.80;;;;;;;17.56;53.06;101504.84;5037998;28;20032;-71
2022/08/07 07:17:55;;;;;;;4.28;1.13;;;;;;;17.61;53.25;101504.81;5068115;28;20052;-70
2022/08/07 07:20:26;;;;;;;1.40;0.90;;;;;;;17.69;53.10;101505.31;5066830;28;20020;-70
2022/08/07 07:22:53;;;;;;;2.28;1.25;;;;;;;17.80;52.79;101509.66;5046974;28;20032;-70
2022/08/07 07:25:19;;;;;;;1.83;0.80;;;;;;;17.86;52.57;101505.72;5069876;28;20048;-69
2022/08/07 07:28:27;;;;;;;1.45;1.05;;;;;;;17.91;52.82;101508.47;5063762;28;20041;-70
2022/08/07 07:30:58;;;;;;;1.65;1.05;;;;;;;18.06;52.37;101503.94;5047255;28;20480;-69
2022/08/07 07:33:27;;;;;;;2.65;1.15;;;;;;;18.16;52.35;101503.03;5055479;28;20474;-70
2022/08/07 07:35:54;;;;;;;2.67;0.95;;;;;;;18.35;52.01;101503.09;5062348;28;20031;-69
2022/08/07 07:38:22;;;;;;;2.55;1.05;;;;;;;18.46;51.30;101496.34;5070046;28;20427;-70
2022/08/07 07:40:49;;;;;;;1.58;1.20;;;;;;;18.54;51.18;101498.47;5065254;28;20019;-70
2022/08/07 07:43:17;;;;;;;2.88;1.25;;;;;;;18.63;51.59;101505.03;5071971;28;20556;-71
2022/08/07 07:45:45;;;;;;;2.72;1.25;;;;;;;18.74;51.12;101502.94;5071934;28;20020;-70
2022/08/07 07:48:13;;;;;;;2.75;1.20;;;;;;;18.85;51.19;101503.66;5050257;28;20122;-71
2022/08/07 07:50:39;;;;;;;3.20;1.25;;;;;;;18.96;51.06;101505.19;5073445;28;20386;-71
2022/08/07 07:53:07;;;;;;;3.83;1.52;;;;;;;19.04;50.24;101505.66;5047943;28;20024;-71
2022/08/07 07:55:33;;;;;;;3.83;1.15;;;;;;;19.13;49.70;101503.91;5064899;28;20040;-70
2022/08/07 07:58:01;;;;;;;9.18;1.30;;;;;;;19.21;49.82;101506.00;5074784;28;20031;-70
2022/08/07 08:00:28;;;;;;;2.10;1.25;;;;;;;19.28;49.63;101512.00;5053967;28;20115;-70
2022/08/07 08:02:58;;;;;;;4.25;1.33;;;;;;;19.39;49.97;101517.41;5045656;28;20029;-70
2022/08/07 08:05:33;;;;;;;1.27;1.13;;;;;;;19.47;49.33;101509.22;5048398;28;20029;-70
2022/08/07 08:07:59;;;;;;;1.40;1.20;;;;;;;19.61;48.85;101509.31;5050198;28;20036;-70
2022/08/07 08:10:24;;;;;;;4.93;1.55;;;;;;;19.67;49.27;101513.66;5052594;28;20029;-70
2022/08/07 08:12:50;;;;;;;1.65;1.15;;;;;;;19.77;48.84;101511.81;5068951;28;20447;-71
2022/08/07 08:15:16;;;;;;;4.40;1.30;;;;;;;19.87;48.88;101511.69;5036654;28;20063;-71
2022/08/07 08:17:43;;;;;;;4.35;1.05;;;;;;;19.95;48.39;101513.78;5051194;28;20033;-72
2022/08/07 08:20:10;;;;;;;2.63;1.30;;;;;;;20.04;48.67;101511.97;5070399;28;20048;-71
2022/08/07 08:28:19;;;;;;;2.67;1.55;;;;;;;20.47;47.33;101507.31;5070913;28;20429;-71
2022/08/07 08:30:46;;;;;;;2.70;1.05;;;;;;;20.60;46.61;101511.25;5070064;28;20100;-69
2022/08/07 08:33:17;;;;;;;8.77;1.63;;;;;;;20.69;46.40;101515.81;5065503;28;20060;-70
2022/08/07 08:35:47;;;;;;;1.80;1.00;;;;;;;20.73;46.63;101508.50;5085836;28;20028;-70
2022/08/07 08:38:14;;;;;;;2.17;1.45;;;;;;;20.84;46.12;101506.34;5070615;28;20148;-71
2022/08/07 08:40:46;;;;;;;3.85;1.60;;;;;;;20.97;45.78;101504.69;5037178;28;20028;-70
2022/08/07 08:43:45;;;;;;;2.55;1.25;;;;;;;21.12;45.33;101499.94;5072089;28;20035;-69
2022/08/07 08:46:19;;;;;;;3.00;1.00;;;;;;;21.24;45.20;101500.19;5065155;28;20021;-69
2022/08/07 08:48:58;;;;;;;3.70;1.27;;;;;;;21.33;44.89;101489.97;5054642;28;20088;-70
2022/08/07 08:51:31;;;;;;;1.85;0.95;;;;;;;21.44;44.63;101488.59;5038768;28;20032;-70
2022/08/07 08:54:09;;;;;;;1.55;1.23;;;;;;;21.62;44.43;101494.34;5073397;28;20371;-71
2022/08/07 08:56:40;;;;;;;2.15;1.38;;;;;;;21.71;43.86;101498.03;5072554;28;20021;-71
2022/08/07 08:59:39;;;;;;;1.90;1.40;;;;;;;21.82;43.47;101500.56;5071958;28;20111;-70
2022/08/07 09:02:50;;;;;;;2.38;1.10;;;;;;;21.95;42.91;101494.91;5075835;28;20060;-71
2022/08/07 09:05:48;;;;;;;3.25;1.30;;;;;;;22.02;42.57;101488.91;4993049;28;20085;-71
2022/08/07 09:08:29;;;;;;;3.47;1.15;;;;;;;22.13;42.30;101489.47;4992262;28;20065;-72
2022/08/07 09:11:26;;;;;;;2.38;1.17;;;;;;;22.29;42.05;101487.91;5023424;28;20041;-70
2022/08/07 09:14:11;;;;;;;1.45;1.08;;;;;;;22.45;41.62;101495.88;5050140;28;20078;-71
2022/08/07 09:17:08;;;;;;;1.33;0.90;;;;;;;22.61;41.05;101487.91;5047141;28;20715;-70
2022/08/07 09:19:56;;;;;;;2.17;1.17;;;;;;;22.73;39.88;101495.66;5028924;28;20040;-71
2022/08/07 09:22:30;;;;;;;1.95;1.17;;;;;;;22.82;39.41;101494.56;5040497;28;20025;-70
2022/08/07 09:25:03;;;;;;;4.88;1.65;;;;;;;22.86;38.19;101483.56;5040999;28;20034;-70
2022/08/07 09:27:55;;;;;;;3.72;1.55;;;;;;;22.77;39.05;101469.59;5039530;28;20053;-69
2022/08/07 09:30:23;;;;;;;3.28;1.70;;;;;;;22.82;37.78;101483.41;5045338;28;20100;-69
2022/08/07 09:33:07;;;;;;;2.75;1.10;;;;;;;22.96;38.28;101480.47;5050643;28;20028;-71
2022/08/07 09:35:36;;;;;;;;;;;;;;;23.46;36.70;101484.81;5030655;28;20099;-70
2022/08/07 09:38:03;;;;;;;2.53;1.45;;;;;;;24.49;34.96;101481.34;5040616;28;19917;-70
2022/08/07 09:40:39;;;;;;;2.25;1.40;;;;;;;25.95;33.94;101483.81;5034506;28;20045;-70
2022/08/07 09:43:17;;;;;;;1.77;1.10;;;;;;;27.63;31.58;101487.66;5048119;28;20028;-72
2022/08/07 09:46:05;;;;;;;3.78;1.42;;;;;;;28.95;29.85;101488.69;5043810;28;20021;-70
2022/08/07 09:48:54;;;;;;;2.42;1.27;;;;;;;30.18;27.92;101485.59;5032120;28;20075;-71
2022/08/07 09:51:40;;;;;;;1.52;1.08;;;;;;;31.22;27.19;101486.47;5040613;28;20029;-70
2022/08/07 09:54:12;;;;;;;4.55;1.20;;;;;;;31.85;24.75;101482.03;5032411;28;20029;-70
2022/08/07 09:57:02;;;;;;;1.90;0.90;;;;;;;32.37;24.93;101479.28;5041329;28;20029;-70
2022/08/07 09:59:30;;;;;;;2.47;1.30;;;;;;;32.68;22.77;101474.28;5044466;28;20047;-70
2022/08/07 10:02:05;;;;;;;1.10;0.82;;;;;;;33.23;23.39;101477.06;5040735;28;20018;-70
2022/08/07 10:04:48;;;;;;;1.63;1.10;;;;;;;33.40;21.83;101475.53;5059015;28;20087;-71
2022/08/07 10:07:40;;;;;;;1.17;0.75;;;;;;;33.71;22.69;101478.06;5053702;28;20378;-71
2022/08/07 10:10:20;;;;;;;1.90;0.95;;;;;;;33.67;22.57;101471.59;5055475;28;20028;-70
2022/08/07 10:13:17;;;;;;;1.95;1.10;;;;;;;33.31;23.17;101472.28;5073106;28;20029;-71
2022/08/07 10:15:43;;;;;;;3.60;1.40;;;;;;;32.01;21.68;101459.16;5054338;28;20505;-70
2022/08/07 10:18:21;;;;;;;1.52;1.10;;;;;;;31.41;23.46;101466.53;5069943;28;20033;-71
2022/08/07 10:21:09;;;;;;;1.08;0.80;;;;;;;31.69;24.38;101462.44;5068149;28;20077;-71
2022/08/07 10:24:03;;;;;;;1.17;0.90;;;;;;;31.79;24.00;101458.94;5070324;28;20028;-72
2022/08/07 10:26:40;;;;;;;1.17;0.82;;;;;;;31.90;24.36;101456.19;5068020;28;20151;-71
2022/08/07 10:29:43;;;;;;;1.73;0.80;;;;;;;31.42;24.70;101448.38;5049955;28;20029;-71
2022/08/07 10:32:20;;;;;;;0.98;0.82;;;;;;;31.12;24.70;101454.88;5068937;28;20032;-70
2022/08/07 10:34:56;;;;;;;2.28;1.30;;;;;;;30.96;24.34;101457.03;5067964;28;20017;-71
2022/08/07 10:37:49;;;;;;;7.05;1.30;;;;;;;30.70;24.33;101452.22;5070017;28;20055;-70
2022/08/07 10:40:46;;;;;;;1.10;0.80;;;;;;;30.75;24.91;101455.53;5032132;28;20039;-71
2022/08/07 10:43:17;;;;;;;1.17;1.00;;;;;;;30.69;25.51;101457.03;5062265;28;20589;-70
2022/08/07 10:45:48;;;;;;;1.05;0.80;;;;;;;30.53;24.73;101447.91;5068825;28;20094;-71
2022/08/07 10:48:19;;;;;;;2.05;1.20;;;;;;;30.20;23.46;101449.34;5071914;28;20048;-70
2022/08/07 10:50:50;;;;;;;1.88;1.20;;;;;;;29.76;24.09;101440.09;5070290;28;20029;-70
2022/08/07 10:53:26;;;;;;;2.28;1.20;;;;;;;29.77;25.03;101438.94;5069481;28;20036;-70
2022/08/07 10:56:02;;;;;;;2.30;1.00;;;;;;;29.82;25.72;101431.31;5039993;28;20035;-70
2022/08/07 10:58:46;;;;;;;0.80;0.73;;;;;;;30.04;24.67;101426.94;5066375;28;20043;-71
2022/08/07 11:01:28;;;;;;;0.88;0.75;;;;;;;30.00;26.67;101426.88;5051604;28;20047;-71
2022/08/07 11:04:14;;;;;;;2.60;0.80;;;;;;;30.25;25.49;101429.31;5060838;28;20048;-71
2022/08/07 11:07:05;;;;;;;2.28;0.90;;;;;;;30.62;26.19;101426.72;5056345;28;20043;-71
2022/08/07 11:09:38;;;;;;;1.63;0.95;;;;;;;30.92;23.48;101428.75;5069307;28;20025;-71
2022/08/07 11:12:21;;;;;;;1.52;0.90;;;;;;;31.11;24.68;101419.34;5044895;28;20025;-71
2022/08/07 11:14:54;;;;;;;3.22;1.00;;;;;;;31.74;23.83;101427.38;5072706;28;20119;-72
2022/08/07 11:17:42;;;;;;;;;;;;;;;32.75;22.53;101416.91;5071876;28;20090;-72
2022/08/07 11:20:11;;;;;;;1.75;0.85;;;;;;;33.72;21.70;101411.66;5055907;28;19917;-72
2022/08/07 11:22:55;;;;;;;1.48;0.80;;;;;;;35.10;20.85;101418.84;5068556;28;20033;-70
2022/08/07 11:25:31;;;;;;;1.15;0.68;;;;;;;36.99;19.09;101420.69;5072151;28;20084;-72
2022/08/07 11:28:03;;;;;;;0.82;0.70;;;;;;;38.81;16.99;101413.78;5070429;28;20033;-71
2022/08/07 11:30:41;;;;;;;0.95;0.50;;;;;;;40.90;15.57;101409.56;5072200;28;20081;-71
2022/08/07 11:33:22;;;;;;;0.45;0.45;;;;;;;42.93;14.01;101406.59;5051786;28;20025;-73
2022/08/07 11:36:12;;;;;;;2.50;0.90;;;;;;;44.37;10.89;101400.75;5071063;28;20042;-71
2022/08/07 11:39:01;;;;;;;4.85;1.13;;;;;;;45.14;9.91;101396.84;5075530;28;20055;-71
2022/08/07 11:41:31;;;;;;;1.70;0.88;;;;;;;45.86;10.30;101404.88;5055519;28;20025;-70
2022/08/07 11:44:13;;;;;;;2.30;0.80;;;;;;;47.43;9.73;101388.16;5077430;28;20547;-72
2022/08/07 11:47:07;;;;;;;1.42;0.88;;;;;;;49.17;9.25;101384.94;5073469;28;20620;-72
2022/08/07 11:49:55;;;;;;;1.55;0.88;;;;;;;49.58;8.09;101384.72;5074502;28;20047;-70
2022/08/07 11:52:44;;;;;;;1.65;0.75;;;;;;;49.98;7.72;101389.97;5061169;28;20580;-73
2022/08/07 11:55:55;;;;;;;0.82;0.70;;;;;;;50.89;8.31;101382.25;5049491;28;20032;-71
2022/08/07 11:58:39;;;;;;;0.60;0.60;;;;;;;51.73;7.36;101378.47;5035730;28;20041;-72
2022/08/07 12:01:23;;;;;;;1.02;0.60;;;;;;;52.96;7.40;101371.63;5070351;28;20032;-71